createdAt,value
2023-05-05T00:01:36.071Z,8.99
2023-05-05T00:04:40.059Z,8.99
2023-05-05T00:07:44.068Z,8.96
2023-05-05T00:10:50.739Z,8.91
2023-05-05T00:13:54.867Z,8.87
2023-05-05T00:16:59.788Z,8.84
2023-05-05T00:20:04.737Z,8.81
2023-05-05T00:23:08.756Z,8.82
2023-05-05T00:26:13.207Z,8.82
2023-05-05T00:29:18.026Z,8.85
2023-05-05T00:32:22.585Z,8.89
2023-05-05T00:35:27.302Z,8.92
2023-05-05T00:38:31.856Z,8.94
2023-05-05T00:41:36.136Z,8.95
2023-05-05T00:44:41.858Z,8.95
2023-05-05T00:47:58.113Z,8.92
2023-05-05T00:51:02.220Z,8.91
2023-05-05T00:54:06.221Z,8.92
2023-05-05T00:57:10.943Z,8.89
2023-05-05T01:00:15.664Z,8.87
2023-05-05T01:03:19.812Z,8.83
2023-05-05T01:06:48.193Z,8.79
2023-05-05T01:10:19.670Z,8.77
2023-05-05T01:13:52.542Z,8.75
2023-05-05T01:17:00.559Z,8.75
2023-05-05T01:20:33.673Z,8.75
2023-05-05T01:24:02.546Z,8.75
2023-05-05T01:27:18.449Z,8.76
2023-05-05T01:30:50.833Z,8.80
2023-05-05T01:34:08.770Z,8.84
2023-05-05T01:37:23.133Z,8.83
2023-05-05T01:40:31.986Z,8.83
2023-05-05T01:43:38.015Z,8.80
2023-05-05T01:46:42.096Z,8.79
2023-05-05T01:49:47.906Z,8.83
2023-05-05T01:52:53.772Z,8.85
2023-05-05T01:55:58.458Z,8.86
2023-05-05T01:59:04.152Z,8.86
2023-05-05T02:02:11.844Z,8.85
2023-05-05T02:05:19.585Z,8.83
2023-05-05T02:08:26.067Z,8.81
2023-05-05T02:11:31.114Z,8.79
2023-05-05T02:14:37.015Z,8.76
2023-05-05T02:17:43.457Z,8.76
2023-05-05T02:20:47.792Z,8.78
2023-05-05T02:23:52.842Z,8.82
2023-05-05T02:26:58.381Z,8.88
2023-05-05T02:30:07.129Z,8.96
2023-05-05T02:33:14.328Z,9.00
2023-05-05T02:36:21.926Z,9.00
2023-05-05T02:39:41.098Z,8.99
2023-05-05T02:42:50.493Z,8.99
2023-05-05T02:45:55.657Z,8.97
2023-05-05T02:48:59.910Z,8.96
2023-05-05T02:52:04.659Z,8.94
2023-05-05T02:55:12.298Z,8.92
2023-05-05T02:58:46.248Z,8.92
2023-05-05T03:02:18.223Z,8.95
2023-05-05T03:05:25.317Z,8.98
2023-05-05T03:08:44.284Z,8.94
2023-05-05T03:11:58.333Z,8.92
2023-05-05T03:15:02.701Z,8.93
2023-05-05T03:18:08.991Z,8.97
2023-05-05T03:21:13.451Z,9.00
2023-05-05T03:24:20.407Z,9.02
2023-05-05T03:27:34.382Z,9.07
2023-05-05T03:30:39.110Z,9.09
2023-05-05T03:33:43.191Z,9.10
2023-05-05T03:36:47.222Z,9.11
2023-05-05T03:39:52.291Z,9.13
2023-05-05T03:42:56.414Z,9.14
2023-05-05T03:46:00.621Z,9.15
2023-05-05T03:49:05.563Z,9.17
2023-05-05T03:52:09.880Z,9.19
2023-05-05T03:55:14.747Z,9.19
2023-05-05T03:58:18.843Z,9.19
2023-05-05T04:01:23.574Z,9.23
2023-05-05T04:04:28.169Z,9.28
2023-05-05T04:07:32.712Z,9.34
2023-05-05T04:10:36.863Z,9.42
2023-05-05T04:13:41.980Z,9.54
2023-05-05T04:16:46.192Z,9.69
2023-05-05T04:19:50.644Z,9.82
2023-05-05T04:22:54.918Z,9.93
2023-05-05T04:25:59.305Z,9.99
2023-05-05T04:29:03.609Z,10.05
2023-05-05T04:32:07.660Z,10.09
2023-05-05T04:35:11.741Z,10.15
2023-05-05T04:38:16.167Z,10.23
2023-05-05T04:41:21.422Z,10.32
2023-05-05T04:44:25.837Z,10.39
2023-05-05T04:47:29.837Z,10.46
2023-05-05T04:50:33.962Z,10.53
2023-05-05T04:53:39.209Z,10.57
2023-05-05T04:56:43.207Z,10.63
2023-05-05T04:59:47.246Z,10.67
2023-05-05T05:02:52.643Z,10.74
2023-05-05T05:05:56.757Z,10.79
2023-05-05T05:09:00.837Z,10.86
2023-05-05T05:12:05.956Z,10.92
2023-05-05T05:15:11.108Z,10.97
2023-05-05T05:18:15.074Z,11.04
2023-05-05T05:21:19.298Z,11.11
2023-05-05T05:24:24.926Z,11.18
2023-05-05T05:27:29.532Z,11.27
2023-05-05T05:30:34.473Z,11.37
2023-05-05T05:33:39.205Z,11.51
2023-05-05T05:36:43.610Z,11.66
2023-05-05T05:39:53.780Z,11.80
2023-05-05T05:42:58.538Z,11.93
2023-05-05T05:46:05.033Z,12.05
2023-05-05T05:49:10.786Z,12.12
2023-05-05T05:52:14.850Z,12.20
2023-05-05T05:55:18.806Z,12.29
2023-05-05T05:58:23.009Z,12.40
2023-05-05T06:01:27.491Z,12.51
2023-05-05T06:04:31.789Z,12.62
2023-05-05T06:07:36.998Z,12.71
2023-05-05T06:10:41.712Z,12.74
2023-05-05T06:13:48.700Z,12.80
2023-05-05T06:16:53.850Z,12.88
2023-05-05T06:19:58.990Z,12.98
2023-05-05T06:23:03.116Z,13.05
2023-05-05T06:26:09.266Z,13.13
2023-05-05T06:29:13.296Z,13.23
2023-05-05T06:32:17.410Z,13.29
2023-05-05T06:35:22.377Z,13.36
2023-05-05T06:38:26.369Z,13.46
2023-05-05T06:41:30.382Z,13.56
2023-05-05T06:44:36.476Z,13.67
2023-05-05T06:47:40.497Z,13.79
2023-05-05T06:50:45.268Z,13.92
2023-05-05T06:53:49.314Z,14.01
2023-05-05T06:56:53.326Z,14.11
2023-05-05T06:59:57.278Z,14.23
2023-05-05T07:03:01.698Z,14.36
2023-05-05T07:06:06.096Z,14.46
2023-05-05T07:09:10.033Z,14.55
2023-05-05T07:12:14.135Z,14.64
2023-05-05T07:15:27.336Z,14.73
2023-05-05T07:18:33.234Z,14.82
2023-05-05T07:21:37.233Z,14.92
2023-05-05T07:24:41.248Z,14.99
2023-05-05T07:27:45.469Z,15.06
2023-05-05T07:30:49.490Z,15.17
2023-05-05T07:33:53.750Z,15.31
2023-05-05T07:36:57.794Z,15.40
2023-05-05T07:40:01.763Z,15.49
2023-05-05T07:43:05.814Z,15.50
2023-05-05T07:46:09.889Z,15.57
2023-05-05T07:49:13.981Z,15.67
2023-05-05T07:52:18.006Z,15.82
2023-05-05T07:55:22.028Z,15.91
2023-05-05T07:58:26.134Z,15.98
2023-05-05T08:01:30.255Z,16.04
2023-05-05T08:04:34.285Z,16.07
2023-05-05T08:07:41.616Z,16.11
2023-05-05T08:10:45.989Z,16.15
2023-05-05T08:13:50.113Z,16.17
2023-05-05T08:16:54.127Z,16.17
2023-05-05T08:19:58.142Z,16.22
2023-05-05T08:23:02.126Z,16.28
2023-05-05T08:26:06.870Z,16.28
2023-05-05T08:29:10.781Z,16.34
2023-05-05T08:32:16.343Z,16.38
2023-05-05T08:35:20.578Z,16.44
2023-05-05T08:38:24.724Z,16.50
2023-05-05T08:41:29.017Z,16.57
2023-05-05T08:44:33.791Z,16.60
2023-05-05T08:47:39.175Z,16.69
2023-05-05T08:50:47.833Z,16.76
2023-05-05T08:53:54.805Z,16.82
2023-05-05T08:57:02.159Z,16.87
2023-05-05T09:00:09.864Z,16.90
2023-05-05T09:03:15.627Z,16.91
2023-05-05T09:06:25.816Z,16.92
2023-05-05T09:09:30.936Z,16.92
2023-05-05T09:12:35.614Z,16.92
2023-05-05T09:15:41.465Z,16.84
2023-05-05T09:18:46.013Z,16.79
2023-05-05T09:21:50.091Z,16.73
2023-05-05T09:24:55.350Z,16.67
2023-05-05T09:27:59.355Z,16.63
2023-05-05T09:31:16.069Z,16.62
2023-05-05T09:34:20.497Z,16.72
2023-05-05T09:37:31.377Z,16.79
2023-05-05T09:40:48.916Z,16.85
2023-05-05T09:43:53.029Z,16.92
2023-05-05T09:46:58.307Z,17.03
2023-05-05T09:50:03.117Z,17.16
2023-05-05T09:53:08.140Z,17.33
2023-05-05T09:56:12.463Z,17.52
2023-05-05T09:59:16.522Z,17.72
2023-05-05T10:02:20.631Z,17.88
2023-05-05T10:05:24.779Z,18.04
2023-05-05T10:08:31.565Z,18.16
2023-05-05T10:11:36.453Z,18.25
2023-05-05T10:14:41.440Z,18.36
2023-05-05T10:20:58.475Z,18.44
2023-05-05T10:24:09.462Z,18.47
2023-05-05T10:27:19.744Z,18.39
2023-05-05T10:30:34.628Z,18.29
2023-05-05T10:33:53.948Z,18.26
2023-05-05T10:37:00.532Z,18.42
2023-05-05T10:40:05.967Z,18.56
2023-05-05T10:43:11.160Z,18.69
2023-05-05T10:46:15.507Z,18.89
2023-05-05T10:49:43.167Z,19.15
2023-05-05T10:53:08.066Z,19.26
2023-05-05T10:56:22.235Z,19.48
2023-05-05T10:59:39.197Z,19.75
2023-05-05T11:02:43.849Z,19.93
2023-05-05T11:06:03.712Z,20.12
2023-05-05T11:09:28.180Z,20.32
2023-05-05T11:12:53.206Z,20.40
2023-05-05T11:15:59.337Z,20.36
2023-05-05T11:19:42.307Z,20.26
2023-05-05T11:23:21.949Z,20.15
2023-05-05T11:26:49.609Z,20.00
2023-05-05T11:30:10.317Z,19.80
2023-05-05T11:33:28.686Z,19.61
2023-05-05T11:36:40.975Z,19.46
2023-05-05T11:40:13.950Z,19.47
2023-05-05T11:43:20.934Z,19.50
2023-05-05T11:46:25.006Z,19.55
2023-05-05T11:49:33.022Z,19.67
2023-05-05T11:52:37.005Z,19.73
2023-05-05T11:55:41.295Z,19.77
2023-05-05T11:58:49.208Z,19.76
2023-05-05T12:01:53.388Z,19.74
2023-05-05T12:04:59.181Z,19.74
2023-05-05T12:08:03.402Z,19.79
2023-05-05T12:11:11.110Z,19.81
2023-05-05T12:14:15.138Z,19.84
2023-05-05T12:17:21.464Z,19.86
2023-05-05T12:20:33.316Z,19.91
2023-05-05T12:23:38.639Z,19.98
2023-05-05T12:26:42.596Z,19.96
2023-05-05T12:29:46.673Z,19.96
2023-05-05T12:32:51.523Z,20.00
2023-05-05T12:35:55.395Z,20.04
2023-05-05T12:38:59.746Z,19.96
2023-05-05T12:42:04.589Z,19.89
2023-05-05T12:45:17.454Z,19.80
2023-05-05T12:48:22.509Z,19.80
2023-05-05T12:51:27.171Z,19.84
2023-05-05T12:54:31.113Z,19.87
2023-05-05T12:57:35.090Z,19.91
2023-05-05T13:00:39.198Z,19.97
2023-05-05T13:03:43.321Z,20.16
2023-05-05T13:06:49.193Z,20.43
2023-05-05T13:10:07.157Z,20.73
2023-05-05T13:13:11.129Z,20.98
2023-05-05T13:16:15.252Z,21.18
2023-05-05T13:19:19.408Z,21.26
2023-05-05T13:22:23.408Z,21.30
2023-05-05T13:25:27.538Z,21.36
2023-05-05T13:28:31.547Z,21.47
2023-05-05T13:31:35.663Z,21.44
2023-05-05T13:34:39.737Z,21.54
2023-05-05T13:37:44.614Z,21.74
2023-05-05T13:40:48.632Z,21.83
2023-05-05T13:43:52.856Z,21.78
2023-05-05T13:46:56.980Z,21.51
2023-05-05T13:50:00.985Z,21.25
2023-05-05T13:53:04.999Z,21.33
2023-05-05T13:56:09.064Z,21.44
2023-05-05T13:59:13.329Z,21.66
2023-05-05T14:02:17.353Z,21.95
2023-05-05T14:05:21.537Z,21.86
2023-05-05T14:08:25.485Z,21.75
2023-05-05T14:11:31.761Z,21.99
2023-05-05T14:14:36.170Z,22.28
2023-05-05T14:17:40.087Z,22.55
2023-05-05T14:20:44.103Z,22.55
2023-05-05T14:23:48.077Z,22.38
2023-05-05T14:26:52.625Z,21.95
2023-05-05T14:29:56.625Z,21.43
2023-05-05T14:33:01.445Z,21.02
2023-05-05T14:36:06.149Z,20.70
2023-05-05T14:39:10.129Z,20.49
2023-05-05T14:42:14.129Z,20.35
2023-05-05T14:45:18.152Z,20.04
2023-05-05T14:48:22.693Z,19.75
2023-05-05T14:51:26.847Z,19.46
2023-05-05T14:54:30.814Z,19.25
2023-05-05T14:57:34.965Z,19.12
2023-05-05T15:00:38.880Z,19.06
2023-05-05T15:03:43.001Z,19.03
2023-05-05T15:06:47.143Z,18.95
2023-05-05T15:09:51.108Z,18.79
2023-05-05T15:12:55.144Z,18.61
2023-05-05T15:15:59.131Z,18.44
2023-05-05T15:19:03.211Z,18.23
2023-05-05T15:22:07.176Z,18.04
2023-05-05T15:25:13.462Z,17.85
2023-05-05T15:28:18.693Z,17.66
2023-05-05T15:31:22.726Z,17.48
2023-05-05T15:34:26.963Z,17.36
2023-05-05T15:37:31.056Z,17.27
2023-05-05T15:40:35.700Z,17.18
2023-05-05T15:43:39.717Z,17.06
2023-05-05T15:46:43.753Z,17.00
2023-05-05T15:49:47.739Z,16.93
2023-05-05T15:52:51.839Z,16.86
2023-05-05T15:55:55.741Z,16.75
2023-05-05T15:58:59.785Z,16.69
2023-05-05T16:02:04.102Z,16.70
2023-05-05T16:05:08.391Z,16.68
2023-05-05T16:08:12.760Z,16.66
2023-05-05T16:11:16.774Z,16.64
2023-05-05T16:14:20.779Z,16.64
2023-05-05T16:17:24.884Z,16.62
2023-05-05T16:20:29.953Z,16.59
2023-05-05T16:23:33.956Z,16.49
2023-05-05T16:26:38.025Z,16.39
2023-05-05T16:29:42.090Z,16.29
2023-05-05T16:32:47.340Z,16.26
2023-05-05T16:35:51.358Z,16.24
2023-05-05T16:38:56.273Z,16.21
2023-05-05T16:42:00.203Z,16.15
2023-05-05T16:45:05.150Z,16.13
2023-05-05T16:48:09.444Z,16.06
2023-05-05T16:51:13.478Z,15.95
2023-05-05T16:54:17.493Z,15.83
2023-05-05T16:57:24.382Z,15.69
2023-05-05T17:00:28.373Z,15.54
2023-05-05T17:03:32.410Z,15.40
2023-05-05T17:06:36.411Z,15.23
2023-05-05T17:09:40.441Z,15.03
2023-05-05T17:12:44.509Z,14.85
2023-05-05T17:15:48.578Z,14.72
2023-05-05T17:18:54.000Z,14.62
2023-05-05T17:21:58.042Z,14.48
2023-05-05T17:25:02.061Z,14.38
2023-05-05T17:28:07.663Z,14.27
2023-05-05T17:31:12.646Z,14.21
2023-05-05T17:34:16.626Z,14.14
2023-05-05T17:37:20.585Z,14.06
2023-05-05T17:40:24.595Z,13.99
2023-05-05T17:43:28.509Z,13.91
2023-05-05T17:46:32.725Z,13.84
2023-05-05T17:49:36.744Z,13.75
2023-05-05T17:52:41.375Z,13.66
2023-05-05T17:55:46.021Z,13.58
2023-05-05T17:58:50.021Z,13.51
2023-05-05T18:01:54.052Z,13.46
2023-05-05T18:04:58.244Z,13.42
2023-05-05T18:08:02.469Z,13.35
2023-05-05T18:11:06.502Z,13.30
2023-05-05T18:14:10.805Z,13.23
2023-05-05T18:17:14.771Z,13.17
2023-05-05T18:20:18.819Z,13.12
2023-05-05T18:23:22.754Z,13.09
2023-05-05T18:26:26.815Z,13.03
2023-05-05T18:29:30.766Z,13.00
2023-05-05T18:32:34.864Z,12.98
2023-05-05T18:35:39.009Z,12.96
2023-05-05T18:38:42.968Z,12.95
2023-05-05T18:41:47.233Z,12.94
2023-05-05T18:44:51.283Z,12.91
2023-05-05T18:47:56.558Z,12.87
2023-05-05T18:51:02.292Z,12.83
2023-05-05T18:54:06.602Z,12.80
2023-05-05T18:57:10.927Z,12.74
2023-05-05T19:00:15.748Z,12.71
2023-05-05T19:03:20.111Z,12.65
2023-05-05T19:06:24.212Z,12.61
2023-05-05T19:09:28.313Z,12.56
2023-05-05T19:12:32.383Z,12.51
2023-05-05T19:15:36.651Z,12.49
2023-05-05T19:18:41.298Z,12.45
2023-05-05T19:21:45.311Z,12.40
2023-05-05T19:24:49.328Z,12.34
2023-05-05T19:27:53.271Z,12.30
2023-05-05T19:30:57.605Z,12.25
2023-05-05T19:34:03.564Z,12.21
2023-05-05T19:37:07.496Z,12.16
2023-05-05T19:40:12.887Z,12.11
2023-05-05T19:43:17.205Z,12.07
2023-05-05T19:46:21.240Z,12.03
2023-05-05T19:49:25.300Z,11.98
2023-05-05T19:52:29.263Z,11.96
2023-05-05T19:55:33.294Z,11.90
2023-05-05T19:58:57.493Z,11.86
2023-05-05T20:02:01.520Z,11.83
2023-05-05T20:05:06.844Z,11.81
2023-05-05T20:08:11.222Z,11.79
2023-05-05T20:11:17.000Z,11.76
2023-05-05T20:14:21.127Z,11.73
2023-05-05T20:17:25.872Z,11.71
2023-05-05T20:20:29.893Z,11.68
2023-05-05T20:23:34.182Z,11.63
2023-05-05T20:26:38.204Z,11.57
2023-05-05T20:29:42.635Z,11.55
2023-05-05T20:32:46.616Z,11.51
2023-05-05T20:35:51.011Z,11.49
2023-05-05T20:38:54.990Z,11.46
2023-05-05T20:41:59.011Z,11.43
2023-05-05T20:45:03.574Z,11.39
2023-05-05T20:48:10.079Z,11.35
2023-05-05T20:51:14.139Z,11.33
2023-05-05T20:54:18.042Z,11.31
2023-05-05T20:57:22.060Z,11.28
2023-05-05T21:00:26.502Z,11.25
2023-05-05T21:03:30.526Z,11.23
2023-05-05T21:06:34.610Z,11.22
2023-05-05T21:09:38.634Z,11.22
2023-05-05T21:12:42.605Z,11.21
2023-05-05T21:15:46.569Z,11.18
2023-05-05T21:18:50.778Z,11.16
2023-05-05T21:21:59.331Z,11.15
2023-05-05T21:25:21.240Z,11.13
2023-05-05T21:28:25.247Z,11.12
2023-05-05T21:31:29.225Z,11.10
2023-05-05T21:34:33.383Z,11.08
2023-05-05T21:37:38.945Z,11.08
2023-05-05T21:40:43.047Z,11.06
2023-05-05T21:43:47.069Z,11.07
2023-05-05T21:46:52.809Z,11.08
2023-05-05T21:49:58.051Z,11.06
2023-05-05T21:53:01.993Z,11.06
2023-05-05T21:56:09.236Z,11.00
2023-05-05T21:59:14.389Z,10.93
2023-05-05T22:02:19.381Z,10.88
2023-05-05T22:05:23.402Z,10.79
2023-05-05T22:08:27.389Z,10.70
2023-05-05T22:11:31.321Z,10.64
2023-05-05T22:14:35.830Z,10.59
2023-05-05T22:17:39.959Z,10.54
2023-05-05T22:20:44.078Z,10.49
2023-05-05T22:23:48.186Z,10.46
2023-05-05T22:26:52.403Z,10.42
2023-05-05T22:29:56.728Z,10.36
2023-05-05T22:33:00.910Z,10.32
2023-05-05T22:36:05.121Z,10.25
2023-05-05T22:39:09.176Z,10.19
2023-05-05T22:42:13.178Z,10.15
2023-05-05T22:45:17.317Z,10.11
2023-05-05T22:48:21.864Z,10.06
2023-05-05T22:51:25.855Z,10.01
2023-05-05T22:54:29.788Z,9.99
2023-05-05T22:57:35.642Z,9.94
2023-05-05T23:00:39.957Z,9.91
2023-05-05T23:03:43.983Z,9.87
2023-05-05T23:06:47.872Z,9.81
2023-05-05T23:09:51.801Z,9.78
2023-05-05T23:12:55.762Z,9.75
2023-05-05T23:15:59.837Z,9.73
2023-05-05T23:19:03.846Z,9.70
2023-05-05T23:22:07.912Z,9.64
2023-05-05T23:25:12.517Z,9.59
2023-05-05T23:28:17.114Z,9.55
2023-05-05T23:31:21.032Z,9.52
2023-05-05T23:34:26.180Z,9.50
2023-05-05T23:37:30.208Z,9.48
2023-05-05T23:40:34.420Z,9.43
2023-05-05T23:43:38.438Z,9.35
2023-05-05T23:46:42.874Z,9.31
2023-05-05T23:49:46.978Z,9.28
2023-05-05T23:52:50.888Z,9.27
2023-05-05T23:55:54.838Z,9.25
2023-05-05T23:58:58.816Z,9.20
